Time;durP1;ratioP1;P1;durP2;ratioP2;P2;SDS_P1;SDS_P2;PMS_P1;PMS_P2;Temp;Humidity;BMP_temperature;BMP_pressure;BME280_temperature;BME280_humidity;BME280_pressure;Samples;Min_cycle;Max_cycle;Signal;HPM_P1;HPM_P2
2022/05/11 00:01:36;;;;;;;1.23;0.90;;;22.30;55.40;;;;;;4970690;28;20047;-16
2022/05/11 00:04:01;;;;;;;0.75;0.63;;;22.30;55.50;;;;;;4971895;28;20229;-16
2022/05/11 00:06:27;;;;;;;0.60;0.60;;;22.30;55.50;;;;;;4971623;28;20047;-15
2022/05/11 00:08:54;;;;;;;1.73;0.73;;;22.30;55.50;;;;;;4963110;28;20111;-15
2022/05/11 00:11:19;;;;;;;1.13;0.70;;;22.20;55.40;;;;;;4972391;28;20046;-15
2022/05/11 00:13:45;;;;;;;0.80;0.80;;;22.20;55.50;;;;;;4985305;28;20558;-15
2022/05/11 00:16:11;;;;;;;0.60;0.60;;;22.20;55.40;;;;;;4972619;28;20444;-15
2022/05/11 00:18:37;;;;;;;0.60;0.43;;;22.20;55.30;;;;;;4971738;28;20618;-16
2022/05/11 00:21:03;;;;;;;2.97;0.65;;;22.20;55.40;;;;;;4961003;28;20503;-15
2022/05/11 00:23:29;;;;;;;0.70;0.63;;;22.20;55.40;;;;;;4973874;28;20409;-15
2022/05/11 00:25:55;;;;;;;1.80;0.80;;;22.20;55.50;;;;;;4975969;28;20054;-16
2022/05/11 00:28:21;;;;;;;0.60;0.50;;;22.20;55.30;;;;;;4975157;28;20043;-15
2022/05/11 00:30:48;;;;;;;1.45;1.00;;;22.20;55.10;;;;;;4986274;28;20098;-15
2022/05/11 00:33:14;;;;;;;1.33;0.63;;;22.20;55.20;;;;;;4974765;28;20053;-15
2022/05/11 00:35:39;;;;;;;0.80;0.80;;;22.20;55.30;;;;;;4974247;28;20125;-15
2022/05/11 00:38:05;;;;;;;0.80;0.60;;;22.20;55.30;;;;;;4975975;28;20071;-15
2022/05/11 00:40:31;;;;;;;0.88;0.70;;;22.20;55.20;;;;;;4976028;28;20520;-15
2022/05/11 00:42:57;;;;;;;0.60;0.60;;;22.10;55.20;;;;;;4976620;28;20122;-15
2022/05/11 00:45:22;;;;;;;1.02;0.93;;;22.20;55.80;;;;;;4975767;28;20061;-15
2022/05/11 00:47:49;;;;;;;1.15;0.80;;;22.20;55.60;;;;;;4977984;28;20478;-16
2022/05/11 00:50:19;;;;;;;0.77;0.60;;;22.20;55.60;;;;;;4976912;28;20049;-15
2022/05/11 00:52:47;;;;;;;0.80;0.80;;;22.20;55.40;;;;;;4992927;28;20111;-15
2022/05/11 00:55:23;;;;;;;0.82;0.52;;;22.20;55.30;;;;;;4977441;28;20455;-15
2022/05/11 00:57:52;;;;;;;0.73;0.45;;;22.20;55.50;;;;;;4977161;28;20125;-16
2022/05/11 01:00:18;;;;;;;0.95;0.60;;;22.20;55.60;;;;;;4978478;28;20560;-15
2022/05/11 01:02:44;;;;;;;0.82;0.60;;;22.10;55.60;;;;;;4978776;28;20591;-15
2022/05/11 01:05:09;;;;;;;1.35;0.75;;;22.20;55.60;;;;;;4978180;28;20496;-15
2022/05/11 01:07:35;;;;;;;0.57;0.50;;;22.10;55.50;;;;;;4978807;28;20046;-15
2022/05/11 01:10:02;;;;;;;1.95;0.60;;;22.10;55.50;;;;;;4960636;28;20058;-15
2022/05/11 01:12:41;;;;;;;0.60;0.47;;;22.20;55.60;;;;;;4978865;28;20078;-17
2022/05/11 01:15:09;;;;;;;1.27;0.50;;;22.10;55.60;;;;;;4967546;28;20496;-16
2022/05/11 01:17:34;;;;;;;0.57;0.43;;;22.10;55.60;;;;;;4974533;28;20054;-15
2022/05/11 01:20:00;;;;;;;0.50;0.50;;;22.10;55.60;;;;;;4975532;28;20046;-15
2022/05/11 01:22:45;;;;;;;2.60;0.70;;;22.10;55.60;;;;;;4976599;28;20476;-15
2022/05/11 01:25:11;;;;;;;1.08;0.50;;;22.10;55.70;;;;;;4976593;28;20074;-16
2022/05/11 01:27:41;;;;;;;1.20;0.60;;;22.10;55.60;;;;;;4979018;28;20046;-15
2022/05/11 01:30:18;;;;;;;0.70;0.63;;;22.10;55.70;;;;;;4978335;28;20039;-16
2022/05/11 01:32:47;;;;;;;1.67;0.80;;;22.10;55.60;;;;;;4977441;28;20043;-16
2022/05/11 01:35:44;;;;;;;1.30;0.68;;;22.10;55.70;;;;;;4978750;28;20046;-15
2022/05/11 01:38:15;;;;;;;0.90;0.75;;;22.10;55.70;;;;;;4977354;28;20053;-14
2022/05/11 01:40:41;;;;;;;0.75;0.60;;;22.10;55.70;;;;;;4977186;28;20049;-17
2022/05/11 01:43:07;;;;;;;1.05;0.70;;;22.10;55.70;;;;;;4978525;28;20504;-15
2022/05/11 01:45:32;;;;;;;0.60;0.50;;;22.10;55.60;;;;;;4977534;28;20519;-15
2022/05/11 01:47:58;;;;;;;2.35;1.02;;;22.10;55.60;;;;;;4978025;28;20324;-15
2022/05/11 01:50:25;;;;;;;0.77;0.50;;;22.10;55.60;;;;;;4978621;28;20051;-15
2022/05/11 01:52:50;;;;;;;1.08;0.73;;;22.10;55.70;;;;;;4977023;28;20050;-15
2022/05/11 01:55:16;;;;;;;0.50;0.40;;;22.10;55.80;;;;;;4977387;28;20042;-16
2022/05/11 01:57:41;;;;;;;0.70;0.70;;;22.10;55.70;;;;;;4978438;28;20534;-17
2022/05/11 02:00:07;;;;;;;0.65;0.65;;;22.10;55.80;;;;;;4977449;28;20051;-15
2022/05/11 02:02:33;;;;;;;0.70;0.70;;;22.10;55.80;;;;;;4978164;28;20381;-15
2022/05/11 02:07:49;;;;;;;0.85;0.70;;;22.00;55.90;;;;;;4977677;28;20061;-17
2022/05/11 02:10:16;;;;;;;1.10;0.50;;;22.00;55.90;;;;;;4977282;28;20558;-15
2022/05/11 02:12:41;;;;;;;0.75;0.65;;;22.00;55.80;;;;;;4976653;28;20566;-16
2022/05/11 02:15:08;;;;;;;0.93;0.60;;;22.00;55.80;;;;;;4977650;28;20408;-15
2022/05/11 02:17:33;;;;;;;0.80;0.80;;;22.00;55.90;;;;;;4977954;28;20039;-15
2022/05/11 02:19:59;;;;;;;0.82;0.70;;;22.00;55.90;;;;;;4976042;28;20045;-15
2022/05/11 02:22:24;;;;;;;0.75;0.45;;;22.00;55.90;;;;;;4976691;28;20097;-15
2022/05/11 02:24:50;;;;;;;1.20;0.70;;;22.00;55.90;;;;;;4976114;28;20046;-15
2022/05/11 02:27:15;;;;;;;2.60;0.70;;;22.00;56.10;;;;;;4976699;28;20055;-15
2022/05/11 02:29:41;;;;;;;2.17;1.02;;;22.00;55.90;;;;;;4977092;28;20412;-15
2022/05/11 02:32:07;;;;;;;0.70;0.50;;;22.00;55.80;;;;;;4977055;28;20046;-15
2022/05/11 02:37:17;;;;;;;;;;;22.00;56.10;;;;;;4976938;28;20102;-15
2022/05/11 02:39:42;;;;;;;0.65;0.65;;;22.00;55.90;;;;;;4977680;28;19921;-16
2022/05/11 02:42:08;;;;;;;0.63;0.63;;;22.00;56.00;;;;;;4977050;28;20142;-15
2022/05/11 02:44:34;;;;;;;1.15;0.75;;;22.00;56.00;;;;;;4975536;28;20097;-15
2022/05/11 02:46:59;;;;;;;0.77;0.52;;;21.90;55.90;;;;;;4976747;28;20488;-15
2022/05/11 02:49:25;;;;;;;0.90;0.80;;;22.00;56.00;;;;;;4977492;28;20038;-15
2022/05/11 02:51:51;;;;;;;2.40;0.80;;;21.90;55.90;;;;;;4990889;28;20519;-15
2022/05/11 02:54:16;;;;;;;0.80;0.65;;;21.90;55.90;;;;;;4977439;28;20130;-15
2022/05/11 02:56:42;;;;;;;0.63;0.60;;;21.90;55.90;;;;;;4977461;28;20042;-15
2022/05/11 02:59:08;;;;;;;0.80;0.70;;;21.90;56.10;;;;;;4990458;28;20524;-15
2022/05/11 03:01:33;;;;;;;1.73;0.88;;;21.90;56.10;;;;;;4975853;28;20047;-15
2022/05/11 03:03:59;;;;;;;0.85;0.80;;;21.90;56.00;;;;;;4976680;28;20526;-16
2022/05/11 03:06:25;;;;;;;2.63;0.80;;;21.90;56.20;;;;;;4977258;28;20047;-15
2022/05/11 03:08:50;;;;;;;1.33;0.60;;;21.90;56.20;;;;;;4969668;28;20043;-15
2022/05/11 03:11:16;;;;;;;0.82;0.70;;;21.90;56.30;;;;;;4975907;28;20492;-15
2022/05/11 03:13:42;;;;;;;0.80;0.68;;;21.90;56.30;;;;;;4976032;28;20047;-17
2022/05/11 03:16:07;;;;;;;1.13;0.90;;;21.90;56.20;;;;;;4976105;28;20049;-16
2022/05/11 03:18:33;;;;;;;2.92;1.10;;;21.90;56.10;;;;;;4975838;28;20038;-16
2022/05/11 03:20:59;;;;;;;0.90;0.80;;;21.90;56.30;;;;;;4976417;28;20047;-16
2022/05/11 03:23:25;;;;;;;1.10;0.82;;;21.90;56.20;;;;;;4976072;28;20130;-16
2022/05/11 03:25:51;;;;;;;1.33;0.80;;;21.90;56.30;;;;;;4976253;28;20038;-16
2022/05/11 03:28:17;;;;;;;1.10;1.00;;;21.90;56.10;;;;;;4975784;28;20042;-16
2022/05/11 03:30:43;;;;;;;1.20;0.70;;;21.80;56.20;;;;;;4976744;28;20439;-16
2022/05/11 03:35:52;;;;;;;;;;;21.80;56.30;;;;;;4975905;28;20053;-16
2022/05/11 03:38:18;;;;;;;2.05;0.80;;;21.80;56.20;;;;;;4976720;28;20364;-16
2022/05/11 03:40:43;;;;;;;1.10;0.88;;;21.80;56.00;;;;;;4976427;28;20047;-16
2022/05/11 03:43:09;;;;;;;0.80;0.80;;;21.80;56.10;;;;;;4975671;28;20198;-16
2022/05/11 03:45:35;;;;;;;0.95;0.75;;;21.80;56.20;;;;;;4976534;28;20038;-16
2022/05/11 03:48:00;;;;;;;0.82;0.82;;;21.80;56.20;;;;;;4974477;28;20459;-16
2022/05/11 03:50:26;;;;;;;1.08;0.80;;;21.80;56.20;;;;;;4975500;28;20057;-16
2022/05/11 03:52:53;;;;;;;1.02;0.80;;;21.80;56.20;;;;;;4974946;28;20062;-16
2022/05/11 03:55:19;;;;;;;0.73;0.70;;;21.80;56.20;;;;;;4976733;28;20047;-16
2022/05/11 03:57:45;;;;;;;1.67;1.08;;;21.80;56.30;;;;;;4976639;28;20495;-16
2022/05/11 04:00:15;;;;;;;0.82;0.70;;;21.80;56.40;;;;;;4974856;28;20089;-16
2022/05/11 04:02:41;;;;;;;0.50;0.50;;;21.80;56.20;;;;;;4975572;28;20051;-15
2022/05/11 04:05:07;;;;;;;1.45;0.80;;;21.80;56.40;;;;;;4973691;28;20113;-15
2022/05/11 04:07:33;;;;;;;1.17;0.98;;;21.80;56.40;;;;;;4976422;28;20058;-15
2022/05/11 04:09:59;;;;;;;1.27;0.98;;;21.80;56.40;;;;;;4975851;28;20043;-16
2022/05/11 04:12:27;;;;;;;1.25;0.57;;;21.80;56.30;;;;;;4976342;28;20047;-16
2022/05/11 04:14:52;;;;;;;0.70;0.60;;;21.80;56.40;;;;;;4974689;28;20126;-15
2022/05/11 04:17:18;;;;;;;1.50;1.00;;;21.80;56.40;;;;;;4976268;28;20074;-16
2022/05/11 04:19:43;;;;;;;0.80;0.75;;;21.80;56.30;;;;;;4975566;28;20054;-16
2022/05/11 04:22:09;;;;;;;1.00;0.80;;;21.80;56.30;;;;;;4990424;28;20078;-16
2022/05/11 04:24:35;;;;;;;1.00;0.70;;;21.70;56.30;;;;;;4976292;28;20070;-16
2022/05/11 04:27:01;;;;;;;0.50;0.50;;;21.80;56.40;;;;;;4989918;28;20047;-16
2022/05/11 04:29:26;;;;;;;0.88;0.80;;;21.70;56.40;;;;;;4976445;28;20065;-16
2022/05/11 04:31:55;;;;;;;0.77;0.60;;;21.70;56.40;;;;;;4975470;28;20101;-17
2022/05/11 04:34:21;;;;;;;0.57;0.57;;;21.70;56.60;;;;;;4975668;28;20039;-16
2022/05/11 04:36:47;;;;;;;1.10;0.70;;;21.70;56.50;;;;;;4975561;28;20062;-16
2022/05/11 04:39:12;;;;;;;0.60;0.60;;;21.70;56.50;;;;;;4975618;28;20096;-16
2022/05/11 04:41:38;;;;;;;1.35;0.77;;;21.70;56.50;;;;;;4976192;28;20070;-16
2022/05/11 04:44:04;;;;;;;0.73;0.55;;;21.70;56.30;;;;;;4974339;28;20031;-16
2022/05/11 04:46:33;;;;;;;0.95;0.70;;;21.70;56.40;;;;;;4976039;28;20046;-16
2022/05/11 04:49:19;;;;;;;1.83;0.80;;;21.70;56.40;;;;;;4974299;28;20062;-16
2022/05/11 04:51:46;;;;;;;0.70;0.55;;;21.70;56.50;;;;;;4975345;28;20047;-16
2022/05/11 04:54:12;;;;;;;0.70;0.60;;;21.70;56.50;;;;;;4975582;28;20403;-16
2022/05/11 04:56:38;;;;;;;0.98;0.75;;;21.70;56.90;;;;;;4976134;28;20130;-16
2022/05/11 04:59:05;;;;;;;0.85;0.60;;;21.70;56.50;;;;;;4975531;28;20496;-16
2022/05/11 05:01:30;;;;;;;1.10;0.73;;;21.70;56.40;;;;;;4978188;28;20047;-17
2022/05/11 05:03:56;;;;;;;0.60;0.50;;;21.70;56.50;;;;;;4977451;28;20045;-16
2022/05/11 05:06:22;;;;;;;0.73;0.73;;;21.70;56.50;;;;;;4979580;28;20093;-16
2022/05/11 05:08:47;;;;;;;1.67;0.70;;;21.70;56.50;;;;;;4978169;28;20046;-16
2022/05/11 05:11:13;;;;;;;1.05;0.82;;;21.70;56.40;;;;;;4977550;28;20159;-16
2022/05/11 05:13:38;;;;;;;0.70;0.68;;;21.70;56.60;;;;;;4977938;28;20408;-16
2022/05/11 05:16:04;;;;;;;0.73;0.65;;;21.70;56.50;;;;;;4977240;28;20097;-16
2022/05/11 05:18:32;;;;;;;1.02;0.65;;;21.70;56.70;;;;;;4977075;28;20042;-16
2022/05/11 05:20:58;;;;;;;0.98;0.73;;;21.60;56.50;;;;;;4977184;28;20065;-17
2022/05/11 05:23:24;;;;;;;3.78;0.95;;;21.70;56.60;;;;;;4629839;28;10000585;-17
2022/05/11 05:25:49;;;;;;;1.20;0.82;;;21.40;56.00;;;;;;4981140;28;20061;-16
2022/05/11 05:31:05;;;;;;;1.33;0.73;;;20.90;56.60;;;;;;4974326;28;20081;-17
2022/05/11 05:33:31;;;;;;;0.77;0.60;;;20.80;56.90;;;;;;4973545;28;20321;-16
2022/05/11 05:35:57;;;;;;;1.17;0.80;;;20.60;57.20;;;;;;4969015;28;20055;-17
2022/05/11 05:38:23;;;;;;;2.10;0.75;;;20.50;57.60;;;;;;4969501;28;20109;-16
2022/05/11 05:40:48;;;;;;;1.08;0.80;;;20.40;57.80;;;;;;4972139;28;20059;-15
2022/05/11 05:43:14;;;;;;;0.90;0.85;;;20.30;58.20;;;;;;4974350;28;20051;-16
2022/05/11 05:45:40;;;;;;;1.45;0.65;;;20.30;58.40;;;;;;4974107;28;20051;-16
2022/05/11 05:48:06;;;;;;;1.95;1.05;;;20.30;58.60;;;;;;4972138;28;20119;-15
2022/05/11 05:50:32;;;;;;;1.30;0.80;;;20.20;58.60;;;;;;4975358;28;20058;-16
2022/05/11 05:52:58;;;;;;;2.50;0.95;;;20.20;59.10;;;;;;4973961;28;20039;-16
2022/05/11 05:55:23;;;;;;;2.15;0.70;;;20.10;59.20;;;;;;4972596;28;20055;-16
2022/05/11 05:57:49;;;;;;;1.08;0.65;;;20.00;59.50;;;;;;4974278;28;20047;-16
2022/05/11 06:00:15;;;;;;;3.72;0.93;;;20.00;59.70;;;;;;4973784;28;20051;-16
2022/05/11 06:02:41;;;;;;;1.77;0.68;;;20.00;59.70;;;;;;4973286;28;20053;-16
2022/05/11 06:05:07;;;;;;;0.82;0.68;;;20.00;59.80;;;;;;4973963;28;20050;-18
2022/05/11 06:07:33;;;;;;;0.90;0.70;;;20.00;59.90;;;;;;4974151;28;20049;-16
2022/05/11 06:09:59;;;;;;;1.08;0.80;;;20.00;60.00;;;;;;4972828;28;20054;-16
2022/05/11 06:12:25;;;;;;;1.00;0.70;;;19.90;60.00;;;;;;4974110;28;20127;-16
2022/05/11 06:14:51;;;;;;;1.98;0.70;;;20.00;60.10;;;;;;4972865;28;20411;-16
2022/05/11 06:17:19;;;;;;;2.75;0.88;;;19.80;60.50;;;;;;4972328;28;20121;-16
2022/05/11 06:19:44;;;;;;;0.85;0.85;;;19.80;60.70;;;;;;4974152;28;20285;-16
2022/05/11 06:22:10;;;;;;;2.05;0.85;;;19.80;61.10;;;;;;4972541;28;20683;-16
2022/05/11 06:24:36;;;;;;;1.30;0.75;;;19.70;61.50;;;;;;4973281;28;20058;-16
2022/05/11 06:27:02;;;;;;;0.70;0.60;;;19.70;61.70;;;;;;4973532;28;20038;-16
2022/05/11 06:29:28;;;;;;;1.30;0.68;;;19.70;61.80;;;;;;4972908;28;20058;-16
2022/05/11 06:31:54;;;;;;;1.85;0.73;;;19.70;61.60;;;;;;4972969;28;20051;-16
2022/05/11 06:34:19;;;;;;;0.80;0.70;;;19.70;61.50;;;;;;4973233;28;20051;-16
2022/05/11 06:36:45;;;;;;;1.38;0.80;;;19.80;61.60;;;;;;4972774;28;20076;-16
2022/05/11 06:39:11;;;;;;;1.60;0.77;;;19.80;61.40;;;;;;4969717;28;20058;-16
2022/05/11 06:41:36;;;;;;;1.42;0.70;;;19.80;61.40;;;;;;4974595;28;20042;-16
2022/05/11 06:44:03;;;;;;;0.88;0.52;;;20.00;61.20;;;;;;4973910;28;20042;-16
2022/05/11 06:46:28;;;;;;;0.90;0.60;;;20.10;60.70;;;;;;4974792;28;20038;-16
2022/05/11 06:48:54;;;;;;;1.13;0.60;;;20.10;60.70;;;;;;4976606;28;20058;-16
2022/05/11 06:51:20;;;;;;;3.05;0.70;;;20.10;60.90;;;;;;4975046;28;20030;-16
2022/05/11 06:59:21;;;;;;;3.50;0.47;;;20.30;60.70;;;;;;4975421;28;20050;-15
2022/05/11 07:01:50;;;;;;;0.80;0.60;;;20.30;60.00;;;;;;4967217;28;20046;-15
2022/05/11 07:04:16;;;;;;;1.08;0.95;;;20.40;59.90;;;;;;4962250;28;20039;-16
2022/05/11 07:06:42;;;;;;;1.15;0.70;;;20.50;59.90;;;;;;4974239;28;20049;-15
2022/05/11 07:09:07;;;;;;;1.40;1.00;;;20.60;60.10;;;;;;4976261;28;20039;-15
2022/05/11 07:14:17;;;;;;;1.05;0.75;;;20.70;59.70;;;;;;4970254;28;20077;-15
2022/05/11 07:16:43;;;;;;;0.93;0.60;;;20.70;59.60;;;;;;4975658;28;20050;-15
2022/05/11 07:19:09;;;;;;;1.00;0.60;;;20.70;59.50;;;;;;4975972;28;20077;-15
2022/05/11 07:21:34;;;;;;;1.10;0.93;;;20.70;59.30;;;;;;4976382;28;20109;-15
2022/05/11 07:24:00;;;;;;;0.98;0.80;;;20.70;59.30;;;;;;4973866;28;20129;-16
2022/05/11 07:26:25;;;;;;;1.23;0.85;;;20.80;59.10;;;;;;4976668;28;20093;-15
2022/05/11 07:28:51;;;;;;;1.63;0.60;;;20.80;59.10;;;;;;4973702;28;20043;-15
2022/05/11 07:31:17;;;;;;;1.00;0.70;;;20.80;58.90;;;;;;4974953;28;20038;-16
2022/05/11 07:33:44;;;;;;;2.05;0.40;;;20.90;59.10;;;;;;4975249;28;20562;-15
2022/05/11 07:36:10;;;;;;;0.55;0.40;;;20.80;58.70;;;;;;4974057;28;20177;-15
2022/05/11 07:38:38;;;;;;;1.45;0.80;;;20.90;58.50;;;;;;4975244;28;20129;-15
2022/05/11 07:41:05;;;;;;;0.60;0.52;;;20.90;58.30;;;;;;4974634;28;20034;-16
2022/05/11 07:43:30;;;;;;;0.55;0.55;;;21.00;58.20;;;;;;4975920;28;20043;-17
2022/05/11 07:45:56;;;;;;;1.10;0.40;;;21.00;58.10;;;;;;4975152;28;20046;-16
2022/05/11 07:48:22;;;;;;;0.95;0.57;;;21.00;58.10;;;;;;4975276;28;20050;-16
2022/05/11 07:50:47;;;;;;;0.77;0.60;;;21.00;58.00;;;;;;4975815;28;20416;-16
2022/05/11 07:53:13;;;;;;;0.60;0.50;;;21.00;58.10;;;;;;4975085;28;20046;-20
2022/05/11 07:55:39;;;;;;;1.17;0.60;;;21.00;57.90;;;;;;4973833;28;20563;-16
2022/05/11 08:00:48;;;;;;;0.52;0.50;;;21.00;58.00;;;;;;4973468;28;20097;-16
2022/05/11 08:03:14;;;;;;;0.40;0.30;;;21.10;58.70;;;;;;4974602;28;20043;-15
2022/05/11 08:05:40;;;;;;;0.50;0.50;;;21.00;57.90;;;;;;4976197;28;20050;-16
2022/05/11 08:08:07;;;;;;;0.40;0.40;;;21.00;57.90;;;;;;4986249;28;20039;-16
2022/05/11 08:10:40;;;;;;;0.65;0.47;;;21.10;58.00;;;;;;4974383;28;20603;-16
2022/05/11 08:13:07;;;;;;;0.45;0.40;;;21.10;57.90;;;;;;4974217;28;20407;-15
2022/05/11 08:15:37;;;;;;;0.47;0.40;;;21.10;57.90;;;;;;4974581;28;20043;-16
2022/05/11 08:18:04;;;;;;;0.77;0.43;;;21.10;57.90;;;;;;4974881;28;20053;-18
2022/05/11 08:20:32;;;;;;;0.43;0.43;;;21.10;57.70;;;;;;4973576;28;20518;-16
2022/05/11 08:22:58;;;;;;;0.60;0.30;;;21.10;57.70;;;;;;4973591;28;20050;-16
2022/05/11 08:25:25;;;;;;;1.05;0.40;;;21.20;57.70;;;;;;4973995;28;20058;-16
2022/05/11 08:27:51;;;;;;;1.58;0.52;;;21.20;57.60;;;;;;4974922;28;20051;-17
2022/05/11 08:33:19;;;;;;;0.60;0.40;;;21.20;57.40;;;;;;4973785;28;20078;-17
2022/05/11 08:35:45;;;;;;;0.75;0.40;;;21.20;57.40;;;;;;4977178;28;20062;-16
2022/05/11 08:38:11;;;;;;;0.30;0.25;;;21.30;57.60;;;;;;4976985;28;20039;-15
2022/05/11 08:40:40;;;;;;;2.35;0.82;;;21.30;57.30;;;;;;4969552;28;20105;-16
2022/05/11 08:43:13;;;;;;;1.13;0.40;;;21.30;57.70;;;;;;4978544;28;20534;-16
2022/05/11 08:45:45;;;;;;;0.20;0.20;;;21.30;57.40;;;;;;4978210;28;20109;-16
2022/05/11 08:48:22;;;;;;;0.60;0.40;;;21.30;57.30;;;;;;4977241;28;20133;-15
2022/05/11 08:50:47;;;;;;;0.90;0.60;;;21.30;57.70;;;;;;4962283;28;20504;-16
2022/05/11 08:53:37;;;;;;;0.25;0.25;;;21.30;57.30;;;;;;4977266;28;20396;-19
2022/05/11 08:56:14;;;;;;;0.70;0.28;;;21.30;57.30;;;;;;4977244;28;20050;-16
2022/05/11 08:58:46;;;;;;;0.60;0.40;;;21.30;57.20;;;;;;4976763;28;20102;-16
2022/05/11 09:01:34;;;;;;;0.40;0.30;;;21.30;57.20;;;;;;4978402;28;20070;-17
2022/05/11 09:04:00;;;;;;;0.57;0.40;;;21.30;57.20;;;;;;4964291;28;20047;-18
2022/05/11 09:06:27;;;;;;;0.30;0.30;;;21.30;57.20;;;;;;4978478;28;20041;-16
2022/05/11 09:08:57;;;;;;;0.45;0.38;;;21.30;57.20;;;;;;4977600;28;20500;-16
2022/05/11 09:11:29;;;;;;;0.40;0.40;;;21.30;57.20;;;;;;4978394;28;20043;-18
2022/05/11 09:13:58;;;;;;;0.57;0.40;;;21.40;57.20;;;;;;4977608;28;20051;-17
2022/05/11 09:16:45;;;;;;;0.20;0.20;;;21.40;57.00;;;;;;4977077;28;20522;-18
2022/05/11 09:19:12;;;;;;;0.40;0.38;;;21.40;57.10;;;;;;4976065;28;20053;-17
2022/05/11 09:21:38;;;;;;;0.43;0.30;;;21.40;57.20;;;;;;4976476;28;20051;-17
2022/05/11 09:24:33;;;;;;;0.93;0.55;;;21.40;57.10;;;;;;4977556;28;20043;-20
2022/05/11 09:27:09;;;;;;;0.40;0.20;;;21.40;57.20;;;;;;4972520;28;20047;-15
2022/05/11 09:29:37;;;;;;;0.63;0.40;;;21.40;57.20;;;;;;4978319;28;20047;-17
2022/05/11 09:32:26;;;;;;;0.40;0.30;;;21.40;57.30;;;;;;4978132;28;20043;-16
2022/05/11 09:34:52;;;;;;;1.00;0.30;;;21.40;57.10;;;;;;4977485;28;20071;-17
2022/05/11 09:37:34;;;;;;;0.40;0.40;;;21.40;57.00;;;;;;4976061;28;20041;-18
2022/05/11 09:40:17;;;;;;;0.25;0.20;;;21.40;57.10;;;;;;4976273;28;20105;-16
2022/05/11 09:43:04;;;;;;;0.43;0.30;;;21.40;57.00;;;;;;4974018;28;20129;-16
2022/05/11 09:45:47;;;;;;;1.27;0.52;;;21.40;57.10;;;;;;4966117;28;20109;-17
2022/05/11 09:48:18;;;;;;;0.25;0.25;;;21.50;57.10;;;;;;4976180;28;20511;-16
2022/05/11 09:50:44;;;;;;;0.40;0.38;;;21.50;57.00;;;;;;4977159;28;20046;-16
2022/05/11 09:53:30;;;;;;;1.08;0.63;;;21.60;56.80;;;;;;4975697;28;20129;-15
2022/05/11 09:55:56;;;;;;;3.70;0.30;;;21.60;56.70;;;;;;4971413;28;20049;-16
2022/05/11 09:58:32;;;;;;;0.93;0.40;;;21.70;56.60;;;;;;4969837;28;20059;-16
2022/05/11 10:01:10;;;;;;;1.10;0.40;;;21.70;56.70;;;;;;4976441;28;20063;-16
2022/05/11 10:03:35;;;;;;;0.38;0.20;;;21.70;57.30;;;;;;4977737;28;20067;-16
2022/05/11 10:06:01;;;;;;;0.57;0.40;;;21.70;56.50;;;;;;4976354;28;20074;-15
2022/05/11 10:08:31;;;;;;;0.25;0.20;;;21.70;56.60;;;;;;4976019;28;20053;-16
2022/05/11 10:10:59;;;;;;;0.68;0.30;;;21.70;56.60;;;;;;4976821;28;20097;-15
2022/05/11 10:13:57;;;;;;;0.30;0.30;;;21.60;56.60;;;;;;4975891;28;20456;-15
2022/05/11 10:22:04;;;;;;;0.20;0.20;;;21.70;56.50;;;;;;4976428;28;20491;-15
2022/05/11 10:24:52;;;;;;;0.45;0.38;;;21.70;56.50;;;;;;4977125;28;20054;-15
2022/05/11 10:27:27;;;;;;;0.22;0.20;;;21.70;56.50;;;;;;4977081;28;20085;-15
2022/05/11 10:29:53;;;;;;;0.25;0.20;;;21.70;56.50;;;;;;4976293;28;20074;-15
2022/05/11 10:32:20;;;;;;;0.40;0.38;;;21.70;56.30;;;;;;4976848;28;20049;-15
2022/05/11 10:35:02;;;;;;;0.30;0.30;;;21.70;56.30;;;;;;4976084;28;20051;-15
2022/05/11 10:37:52;;;;;;;0.50;0.17;;;21.70;56.20;;;;;;4959391;28;20049;-15
2022/05/11 10:40:27;;;;;;;0.50;0.30;;;21.70;56.20;;;;;;4967691;28;20555;-15
2022/05/11 10:43:03;;;;;;;0.60;0.43;;;21.70;56.10;;;;;;4976009;28;20050;-15
2022/05/11 10:45:48;;;;;;;0.28;0.22;;;21.70;56.30;;;;;;4976137;28;20101;-15
2022/05/11 10:48:43;;;;;;;0.60;0.30;;;21.70;56.20;;;;;;4968990;28;20055;-14
2022/05/11 10:51:32;;;;;;;0.30;0.20;;;21.80;56.10;;;;;;4974521;28;20047;-15
2022/05/11 10:54:08;;;;;;;0.38;0.20;;;21.70;56.00;;;;;;4973357;28;20067;-16
2022/05/11 10:56:46;;;;;;;0.20;0.10;;;21.70;56.00;;;;;;4975022;28;20043;-16
2022/05/11 10:59:28;;;;;;;0.30;0.30;;;21.70;56.10;;;;;;4976505;28;20054;-17
2022/05/11 11:02:14;;;;;;;0.20;0.10;;;21.70;56.00;;;;;;4974209;28;20046;-16
2022/05/11 11:04:49;;;;;;;0.30;0.30;;;21.70;56.00;;;;;;4976218;28;20039;-17
2022/05/11 11:07:21;;;;;;;0.40;0.20;;;21.70;55.90;;;;;;4975765;28;20046;-17
2022/05/11 11:09:53;;;;;;;0.47;0.35;;;21.80;55.80;;;;;;4960246;28;20047;-16
2022/05/11 11:12:33;;;;;;;0.30;0.20;;;21.70;55.90;;;;;;4976228;28;20047;-17
2022/05/11 11:15:00;;;;;;;0.45;0.30;;;21.80;56.00;;;;;;4976655;28;20492;-16
2022/05/11 11:17:26;;;;;;;0.30;0.20;;;21.80;55.90;;;;;;4957611;28;20520;-16
2022/05/11 11:19:57;;;;;;;0.30;0.30;;;21.80;55.90;;;;;;4975287;28;20039;-17
2022/05/11 11:22:22;;;;;;;0.90;0.50;;;21.80;56.00;;;;;;4990680;28;20118;-17
2022/05/11 11:25:10;;;;;;;0.13;0.13;;;21.80;56.00;;;;;;4974425;28;20547;-16
2022/05/11 11:28:14;;;;;;;0.30;0.30;;;21.80;56.00;;;;;;4975733;28;20059;-16
2022/05/11 11:30:41;;;;;;;0.35;0.30;;;21.80;55.90;;;;;;4973963;28;20137;-17
2022/05/11 11:33:17;;;;;;;0.40;0.35;;;21.80;55.90;;;;;;4975316;28;20583;-16
2022/05/11 11:35:53;;;;;;;0.45;0.32;;;21.80;56.00;;;;;;4974192;28;20046;-16
2022/05/11 11:38:38;;;;;;;0.30;0.30;;;21.80;56.00;;;;;;4974642;28;20046;-18
2022/05/11 11:41:12;;;;;;;0.77;0.30;;;21.80;56.00;;;;;;4976145;28;20512;-16
2022/05/11 11:43:43;;;;;;;0.35;0.30;;;21.80;56.00;;;;;;4975226;28;20047;-16
2022/05/11 11:46:09;;;;;;;0.20;0.20;;;21.80;56.00;;;;;;4976010;28;20062;-16
2022/05/11 11:48:35;;;;;;;0.40;0.40;;;21.80;56.10;;;;;;4989425;28;20062;-15
2022/05/11 11:51:03;;;;;;;0.38;0.35;;;21.80;56.00;;;;;;4973844;28;20035;-16
2022/05/11 11:53:50;;;;;;;0.30;0.30;;;21.80;56.00;;;;;;4974217;28;20046;-16
2022/05/11 11:56:25;;;;;;;0.45;0.20;;;21.80;56.10;;;;;;4975557;28;20039;-17
2022/05/11 11:59:08;;;;;;;0.47;0.40;;;21.80;56.10;;;;;;4974922;28;20053;-16
2022/05/11 12:01:38;;;;;;;0.20;0.20;;;21.90;56.10;;;;;;4973646;28;20031;-17
2022/05/11 12:04:17;;;;;;;2.83;0.43;;;21.90;56.80;;;;;;4969091;28;20039;-17
2022/05/11 12:15:09;;;;;;;0.22;0.20;;;21.90;56.10;;;;;;4964048;28;20197;-17
2022/05/11 12:17:37;;;;;;;1.00;0.45;;;22.00;56.20;;;;;;4978634;28;20047;-17
2022/05/11 12:20:09;;;;;;;0.55;0.47;;;22.00;56.40;;;;;;4980027;28;20516;-17
2022/05/11 12:22:41;;;;;;;0.60;0.20;;;22.00;56.60;;;;;;4993839;28;20054;-17
2022/05/11 12:25:26;;;;;;;1.50;0.40;;;22.00;56.80;;;;;;4642168;28;10000665;-16
2022/05/11 12:27:52;;;;;;;1.58;0.47;;;22.00;56.90;;;;;;4972427;28;20424;-16
2022/05/11 12:30:18;;;;;;;0.75;0.45;;;22.00;57.30;;;;;;4978677;28;20429;-18
2022/05/11 12:32:56;;;;;;;0.52;0.30;;;22.00;57.00;;;;;;4977566;28;20046;-18
2022/05/11 12:35:31;;;;;;;2.47;0.30;;;22.00;56.50;;;;;;4983510;28;20046;-18
2022/05/11 12:38:10;;;;;;;0.63;0.38;;;22.00;56.90;;;;;;4976996;28;20129;-17
2022/05/11 12:40:41;;;;;;;0.20;0.20;;;22.00;56.90;;;;;;4977278;28;20046;-17
2022/05/11 12:43:15;;;;;;;0.63;0.20;;;22.00;56.60;;;;;;4974817;28;20098;-17
2022/05/11 12:45:44;;;;;;;0.20;0.20;;;22.00;56.70;;;;;;4958044;28;20055;-18
2022/05/11 12:48:14;;;;;;;0.30;0.30;;;22.00;56.70;;;;;;4969531;28;20050;-18
2022/05/11 12:50:52;;;;;;;0.40;0.25;;;22.00;56.70;;;;;;4976631;28;20074;-17
2022/05/11 12:53:18;;;;;;;0.80;0.30;;;22.00;56.80;;;;;;4978035;28;20074;-18
2022/05/11 12:55:46;;;;;;;0.35;0.30;;;22.00;56.60;;;;;;4976287;28;20054;-17
2022/05/11 12:58:26;;;;;;;0.47;0.28;;;22.00;56.60;;;;;;4977943;28;20046;-17
2022/05/11 13:00:57;;;;;;;1.08;0.30;;;22.10;56.50;;;;;;4977187;28;20105;-17
2022/05/11 13:03:35;;;;;;;1.00;0.40;;;22.10;56.50;;;;;;4977015;28;20042;-17
2022/05/11 13:06:40;;;;;;;1.23;0.35;;;22.10;56.50;;;;;;4977393;28;20078;-16
2022/05/11 13:09:12;;;;;;;0.65;0.30;;;22.10;56.80;;;;;;4969353;28;20055;-16
2022/05/11 13:11:37;;;;;;;1.70;0.50;;;22.10;56.60;;;;;;4971702;28;20049;-16
2022/05/11 13:14:10;;;;;;;0.43;0.30;;;22.10;56.50;;;;;;4992997;28;20071;-16
2022/05/11 13:16:36;;;;;;;0.30;0.30;;;22.10;56.60;;;;;;4963892;28;20126;-16
2022/05/11 13:19:23;;;;;;;1.38;0.13;;;22.10;56.80;;;;;;4972099;28;20050;-17
2022/05/11 13:21:48;;;;;;;0.30;0.30;;;22.10;56.70;;;;;;4965788;28;20062;-18
2022/05/11 13:24:14;;;;;;;0.57;0.20;;;22.10;56.90;;;;;;4971965;28;20051;-16
2022/05/11 13:26:42;;;;;;;0.30;0.30;;;22.10;56.90;;;;;;4974128;28;20086;-16
2022/05/11 13:29:17;;;;;;;0.40;0.20;;;22.10;56.90;;;;;;4974724;28;20054;-16
2022/05/11 13:31:42;;;;;;;0.75;0.20;;;22.10;57.00;;;;;;4965175;28;20496;-15
2022/05/11 13:34:34;;;;;;;0.35;0.20;;;22.10;57.10;;;;;;4975054;28;20411;-15
2022/05/11 13:37:01;;;;;;;0.55;0.20;;;22.10;56.90;;;;;;4963875;28;20547;-15
2022/05/11 13:39:30;;;;;;;0.55;0.20;;;22.20;57.00;;;;;;4972549;28;20077;-15